Time;durP1;ratioP1;P1;durP2;ratioP2;P2;SDS_P1;SDS_P2;PMS_P1;PMS_P2;Temp;Humidity;BMP_temperature;BMP_pressure;BME280_temperature;BME280_humidity;BME280_pressure;Samples;Min_cycle;Max_cycle;Signal;HPM_P1;HPM_P2
2021/08/11 00:00:16;;;;;;;1.47;0.93;;;;;;;;;;5032152;28;20427;-77
2021/08/11 00:02:42;;;;;;;1.93;1.83;;;;;;;;;;5032965;28;20529;-76
2021/08/11 00:05:08;;;;;;;1.10;0.97;;;;;;;;;;5034285;28;20422;-76
2021/08/11 00:07:34;;;;;;;3.50;1.53;;;;;;;;;;5029617;28;20440;-77
2021/08/11 00:10:00;;;;;;;1.07;0.97;;;;;;;;;;5034673;28;20446;-77
2021/08/11 00:12:26;;;;;;;0.80;0.73;;;;;;;;;;5048065;23;20467;-76
2021/08/11 00:14:52;;;;;;;0.80;0.80;;;;;;;;;;5012423;28;20515;-76
2021/08/11 00:17:18;;;;;;;1.90;1.43;;;;;;;;;;5014987;28;20409;-77
2021/08/11 00:19:44;;;;;;;1.60;1.50;;;;;;;;;;5013111;28;20433;-77
2021/08/11 00:22:10;;;;;;;3.57;2.33;;;;;;;;;;5014449;28;20487;-77
2021/08/11 00:24:36;;;;;;;1.30;1.20;;;;;;;;;;5013080;28;20425;-77
2021/08/11 00:27:02;;;;;;;1.23;1.13;;;;;;;;;;5010510;28;20444;-77
2021/08/11 00:29:28;;;;;;;1.20;1.10;;;;;;;;;;5013375;28;20475;-77
2021/08/11 00:31:54;;;;;;;1.00;0.90;;;;;;;;;;5012838;28;20486;-77
2021/08/11 00:34:20;;;;;;;0.73;0.60;;;;;;;;;;5012598;28;20476;-76
2021/08/11 00:36:46;;;;;;;1.00;0.70;;;;;;;;;;5013438;28;20459;-76
2021/08/11 00:39:12;;;;;;;1.17;1.07;;;;;;;;;;5014115;28;20437;-76
2021/08/11 00:41:44;;;;;;;1.67;1.20;;;;;;;;;;5012775;28;20479;-76
2021/08/11 00:44:11;;;;;;;1.93;1.83;;;;;;;;;;5012562;28;20460;-76
2021/08/11 00:46:39;;;;;;;1.30;1.20;;;;;;;;;;5012337;28;20809;-76
2021/08/11 00:49:05;;;;;;;1.00;0.90;;;;;;;;;;5011186;28;20852;-76
2021/08/11 00:51:31;;;;;;;1.53;1.07;;;;;;;;;;5012469;28;20445;-76
2021/08/11 00:53:57;;;;;;;1.77;1.03;;;;;;;;;;5012169;28;20588;-77
2021/08/11 00:56:24;;;;;;;1.00;0.90;;;;;;;;;;5008624;28;21381;-76
2021/08/11 00:58:50;;;;;;;3.17;1.30;;;;;;;;;;5013276;28;20407;-76
2021/08/11 01:01:16;;;;;;;1.23;1.13;;;;;;;;;;5012993;28;20440;-76
2021/08/11 01:03:42;;;;;;;1.03;0.93;;;;;;;;;;5010630;28;21022;-76
2021/08/11 01:06:08;;;;;;;1.93;1.27;;;;;;;;;;5013245;28;20437;-77
2021/08/11 01:08:36;;;;;;;0.83;0.83;;;;;;;;;;5008915;28;20442;-76
2021/08/11 01:11:02;;;;;;;1.67;1.53;;;;;;;;;;5006799;28;20445;-77
2021/08/11 01:13:28;;;;;;;0.80;0.80;;;;;;;;;;5014008;28;20459;-76
2021/08/11 01:15:55;;;;;;;1.20;1.10;;;;;;;;;;5009380;28;20479;-76
2021/08/11 01:18:20;;;;;;;0.90;0.90;;;;;;;;;;5013004;28;20433;-77
2021/08/11 01:21:06;;;;;;;0.93;0.80;;;;;;;;;;5012952;28;20531;-77
2021/08/11 01:23:37;;;;;;;2.37;2.27;;;;;;;;;;5009979;28;20559;-76
2021/08/11 01:26:06;;;;;;;0.70;0.70;;;;;;;;;;5011415;28;20443;-77
2021/08/11 01:28:44;;;;;;;1.60;1.10;;;;;;;;;;5027990;28;20444;-76
2021/08/11 01:31:13;;;;;;;2.30;1.10;;;;;;;;;;5007148;28;20471;-77
2021/08/11 01:33:59;;;;;;;1.43;1.17;;;;;;;;;;5012376;28;20464;-76
2021/08/11 01:36:46;;;;;;;1.77;1.67;;;;;;;;;;5008044;28;20438;-76
2021/08/11 01:39:33;;;;;;;1.50;1.40;;;;;;;;;;5012361;28;20432;-76
2021/08/11 01:42:10;;;;;;;1.57;0.77;;;;;;;;;;5009526;28;20446;-76
2021/08/11 01:44:43;;;;;;;2.30;1.53;;;;;;;;;;5012248;28;20914;-76
2021/08/11 01:47:12;;;;;;;1.10;1.00;;;;;;;;;;5018411;28;20464;-76
2021/08/11 01:49:39;;;;;;;0.90;0.90;;;;;;;;;;5011954;28;20420;-76
2021/08/11 01:52:06;;;;;;;0.70;0.60;;;;;;;;;;5012007;28;20785;-77
2021/08/11 01:54:34;;;;;;;0.93;0.80;;;;;;;;;;5012574;28;20510;-76
2021/08/11 01:57:01;;;;;;;1.20;1.10;;;;;;;;;;5010057;28;21035;-77
2021/08/11 01:59:27;;;;;;;0.80;0.70;;;;;;;;;;5010954;28;20444;-77
2021/08/11 02:01:53;;;;;;;0.90;0.90;;;;;;;;;;5011229;28;20824;-77
2021/08/11 02:04:19;;;;;;;1.20;0.80;;;;;;;;;;5010469;28;20519;-77
2021/08/11 02:06:46;;;;;;;1.27;1.17;;;;;;;;;;5007296;28;20471;-77
2021/08/11 02:09:13;;;;;;;1.40;1.30;;;;;;;;;;5011957;28;20440;-77
2021/08/11 02:11:43;;;;;;;1.73;1.60;;;;;;;;;;5009270;28;20445;-77
2021/08/11 02:14:09;;;;;;;1.23;1.13;;;;;;;;;;5011591;28;20467;-76
2021/08/11 02:16:36;;;;;;;1.03;1.03;;;;;;;;;;5010497;28;20453;-76
2021/08/11 02:19:02;;;;;;;1.43;0.80;;;;;;;;;;5011223;28;20524;-77
2021/08/11 02:21:28;;;;;;;1.03;0.70;;;;;;;;;;5023284;28;21010;-76
2021/08/11 02:23:54;;;;;;;2.20;1.00;;;;;;;;;;5011171;28;20809;-77
2021/08/11 02:26:40;;;;;;;1.13;1.07;;;;;;;;;;5011254;28;20436;-77
2021/08/11 02:29:17;;;;;;;0.97;0.97;;;;;;;;;;5008427;28;20439;-76
2021/08/11 02:31:52;;;;;;;1.53;1.43;;;;;;;;;;5010467;28;20415;-76
2021/08/11 02:34:32;;;;;;;2.40;1.30;;;;;;;;;;5008419;28;20463;-76
2021/08/11 02:37:00;;;;;;;0.80;0.70;;;;;;;;;;5010123;28;20445;-76
2021/08/11 02:39:30;;;;;;;1.00;0.90;;;;;;;;;;5010851;28;20530;-77
2021/08/11 02:42:01;;;;;;;0.80;0.80;;;;;;;;;;5007498;28;20496;-77
2021/08/11 02:44:32;;;;;;;1.03;1.03;;;;;;;;;;5010285;28;20455;-77
2021/08/11 02:46:58;;;;;;;1.00;1.00;;;;;;;;;;5010066;28;20495;-76
2021/08/11 02:49:29;;;;;;;1.57;1.47;;;;;;;;;;5010856;28;20456;-76
2021/08/11 02:51:56;;;;;;;1.93;1.77;;;;;;;;;;5011059;28;20796;-77
2021/08/11 02:54:23;;;;;;;4.20;2.40;;;;;;;;;;5011077;28;20477;-77
2021/08/11 02:56:50;;;;;;;0.80;0.73;;;;;;;;;;5008213;28;20494;-77
2021/08/11 02:59:16;;;;;;;1.57;1.47;;;;;;;;;;5010417;28;20418;-77
2021/08/11 03:01:43;;;;;;;2.00;1.67;;;;;;;;;;5011007;28;20472;-76
2021/08/11 03:04:09;;;;;;;1.67;1.47;;;;;;;;;;5009957;28;20464;-76
2021/08/11 03:06:35;;;;;;;0.80;0.73;;;;;;;;;;5007181;28;20579;-77
2021/08/11 03:09:01;;;;;;;1.20;1.10;;;;;;;;;;5010204;28;20448;-77
2021/08/11 03:11:29;;;;;;;0.90;0.90;;;;;;;;;;5011337;28;20813;-77
2021/08/11 03:13:55;;;;;;;1.27;1.17;;;;;;;;;;5007826;28;20486;-76
2021/08/11 03:16:21;;;;;;;1.23;1.13;;;;;;;;;;5008534;28;20436;-77
2021/08/11 03:18:50;;;;;;;0.70;0.70;;;;;;;;;;5011411;28;20487;-77
2021/08/11 03:21:16;;;;;;;1.73;1.53;;;;;;;;;;5012655;28;20407;-77
2021/08/11 03:23:42;;;;;;;2.60;1.30;;;;;;;;;;5009443;28;20483;-76
2021/08/11 03:26:08;;;;;;;0.90;0.90;;;;;;;;;;5008194;28;20422;-77
2021/08/11 03:28:34;;;;;;;0.80;0.80;;;;;;;;;;5008225;28;20464;-76
2021/08/11 03:31:00;;;;;;;2.40;1.50;;;;;;;;;;5011079;28;20436;-77
2021/08/11 03:33:26;;;;;;;1.40;1.23;;;;;;;;;;5011102;28;20454;-77
2021/08/11 03:35:52;;;;;;;2.20;2.03;;;;;;;;;;5009363;28;20760;-77
2021/08/11 03:38:18;;;;;;;2.80;2.60;;;;;;;;;;5010620;28;20850;-76
2021/08/11 03:40:44;;;;;;;1.03;1.00;;;;;;;;;;5009190;28;20967;-77
2021/08/11 03:43:10;;;;;;;1.27;1.07;;;;;;;;;;5009315;28;20476;-76
2021/08/11 03:45:36;;;;;;;2.33;1.80;;;;;;;;;;5009725;28;20441;-77
2021/08/11 03:48:02;;;;;;;1.00;0.93;;;;;;;;;;5010520;28;20490;-76
2021/08/11 03:50:28;;;;;;;1.27;1.17;;;;;;;;;;5010149;28;20445;-77
2021/08/11 03:52:54;;;;;;;1.67;1.57;;;;;;;;;;5011002;28;20461;-77
2021/08/11 03:55:20;;;;;;;1.47;1.37;;;;;;;;;;5008710;28;20814;-76
2021/08/11 03:57:46;;;;;;;0.70;0.70;;;;;;;;;;5008585;28;20451;-76
2021/08/11 04:00:12;;;;;;;0.93;0.83;;;;;;;;;;5010566;28;20451;-76
2021/08/11 04:02:38;;;;;;;0.90;0.90;;;;;;;;;;5011462;28;20464;-76
2021/08/11 04:05:05;;;;;;;1.00;0.90;;;;;;;;;;5007889;28;21001;-76
2021/08/11 04:07:31;;;;;;;2.20;1.53;;;;;;;;;;5008595;28;20448;-77
2021/08/11 04:09:57;;;;;;;1.20;0.90;;;;;;;;;;5007023;28;20546;-77
2021/08/11 04:12:23;;;;;;;1.17;1.07;;;;;;;;;;5010448;28;20447;-76
2021/08/11 04:14:49;;;;;;;0.70;0.60;;;;;;;;;;5009296;28;20965;-77
2021/08/11 04:17:14;;;;;;;2.17;1.13;;;;;;;;;;5009674;28;20447;-76
2021/08/11 04:19:40;;;;;;;0.80;0.60;;;;;;;;;;5012322;28;20412;-76
2021/08/11 04:22:06;;;;;;;1.43;1.33;;;;;;;;;;5008665;28;20455;-76
2021/08/11 04:24:32;;;;;;;1.10;1.00;;;;;;;;;;5009414;28;20453;-77
2021/08/11 04:26:58;;;;;;;1.30;1.00;;;;;;;;;;5009462;28;20877;-76
2021/08/11 04:29:24;;;;;;;1.17;0.80;;;;;;;;;;5010495;28;20831;-74
2021/08/11 04:31:50;;;;;;;0.80;0.80;;;;;;;;;;5012503;28;20783;-74
2021/08/11 04:34:16;;;;;;;0.80;0.70;;;;;;;;;;5013781;28;20904;-74
2021/08/11 04:36:42;;;;;;;1.23;1.13;;;;;;;;;;5014031;28;20904;-73
2021/08/11 04:39:08;;;;;;;0.93;0.83;;;;;;;;;;5013870;28;20452;-74
2021/08/11 04:41:34;;;;;;;1.30;1.20;;;;;;;;;;5014475;28;20425;-74
2021/08/11 04:44:00;;;;;;;0.90;0.90;;;;;;;;;;5012761;28;20489;-73
2021/08/11 04:46:25;;;;;;;1.10;0.97;;;;;;;;;;5013808;28;20399;-74
2021/08/11 04:48:51;;;;;;;0.83;0.83;;;;;;;;;;5014675;28;20459;-74
2021/08/11 04:51:17;;;;;;;3.43;1.33;;;;;;;;;;5010260;28;20444;-73
2021/08/11 04:53:43;;;;;;;1.20;1.10;;;;;;;;;;5014080;28;20824;-74
2021/08/11 04:56:09;;;;;;;1.07;0.97;;;;;;;;;;5012749;28;20487;-73
2021/08/11 04:58:35;;;;;;;1.07;0.97;;;;;;;;;;5011848;28;20575;-74
2021/08/11 05:01:01;;;;;;;1.27;0.90;;;;;;;;;;5013546;28;20479;-74
2021/08/11 05:03:27;;;;;;;3.50;1.10;;;;;;;;;;5014358;28;20476;-74
2021/08/11 05:05:53;;;;;;;1.20;1.10;;;;;;;;;;5013432;28;20438;-74
2021/08/11 05:08:19;;;;;;;1.23;1.13;;;;;;;;;;5014155;28;20938;-73
2021/08/11 05:10:45;;;;;;;1.00;0.90;;;;;;;;;;5013643;28;20514;-74
2021/08/11 05:13:13;;;;;;;0.80;0.70;;;;;;;;;;5013153;28;20933;-73
2021/08/11 05:15:39;;;;;;;0.90;0.73;;;;;;;;;;5013891;28;20432;-73
2021/08/11 05:18:04;;;;;;;4.77;1.27;;;;;;;;;;5013904;28;20423;-74
2021/08/11 05:20:30;;;;;;;4.70;1.90;;;;;;;;;;5012077;28;20434;-73
2021/08/11 05:22:56;;;;;;;1.57;1.27;;;;;;;;;;5010587;28;20529;-74
2021/08/11 05:25:22;;;;;;;1.93;1.13;;;;;;;;;;5012770;28;20828;-74
2021/08/11 05:27:48;;;;;;;3.53;2.70;;;;;;;;;;5011790;28;20809;-74
2021/08/11 05:30:14;;;;;;;1.67;1.57;;;;;;;;;;5013465;28;20412;-74
2021/08/11 05:32:40;;;;;;;4.13;1.63;;;;;;;;;;5013464;28;20454;-74
2021/08/11 05:35:07;;;;;;;1.40;1.30;;;;;;;;;;5012514;28;20430;-74
2021/08/11 05:37:33;;;;;;;1.90;1.40;;;;;;;;;;5013415;28;20421;-74
2021/08/11 05:39:59;;;;;;;0.83;0.83;;;;;;;;;;5013490;28;20456;-74
2021/08/11 05:42:25;;;;;;;1.27;1.20;;;;;;;;;;5013090;28;20494;-74
2021/08/11 05:44:51;;;;;;;1.30;1.20;;;;;;;;;;5013763;28;20388;-74
2021/08/11 05:47:17;;;;;;;1.77;1.67;;;;;;;;;;5013310;28;20417;-74
2021/08/11 05:49:43;;;;;;;1.47;1.37;;;;;;;;;;5015413;28;20421;-74
2021/08/11 05:52:09;;;;;;;1.67;1.30;;;;;;;;;;5024799;28;20482;-74
2021/08/11 05:54:35;;;;;;;0.83;0.70;;;;;;;;;;5012986;28;20543;-74
2021/08/11 05:57:02;;;;;;;1.67;1.23;;;;;;;;;;5013119;28;20395;-74
2021/08/11 05:59:28;;;;;;;1.47;1.30;;;;;;;;;;5013344;28;20428;-74
2021/08/11 06:01:54;;;;;;;1.93;1.83;;;;;;;;;;5013486;28;21033;-73
2021/08/11 06:04:22;;;;;;;1.17;0.80;;;;;;;;;;5013294;28;20439;-74
2021/08/11 06:06:48;;;;;;;2.37;1.83;;;;;;;;;;5012920;28;20391;-74
2021/08/11 06:09:14;;;;;;;2.37;0.97;;;;;;;;;;5013315;28;20518;-73
2021/08/11 06:11:40;;;;;;;1.33;1.23;;;;;;;;;;5013323;28;20482;-73
2021/08/11 06:14:06;;;;;;;1.00;0.90;;;;;;;;;;5024837;22;20850;-77
2021/08/11 06:16:32;;;;;;;1.43;1.33;;;;;;;;;;5008948;28;20417;-77
2021/08/11 06:18:58;;;;;;;2.50;1.80;;;;;;;;;;5017368;28;20419;-77
2021/08/11 06:21:25;;;;;;;0.80;0.80;;;;;;;;;;5017562;28;20413;-77
2021/08/11 06:23:51;;;;;;;7.70;1.63;;;;;;;;;;5008286;28;21018;-77
2021/08/11 06:26:18;;;;;;;2.63;1.83;;;;;;;;;;5008375;28;20403;-77
2021/08/11 06:28:44;;;;;;;1.77;1.03;;;;;;;;;;4997900;28;20441;-77
2021/08/11 06:31:10;;;;;;;2.30;1.80;;;;;;;;;;4998320;28;20780;-75
2021/08/11 06:33:36;;;;;;;2.53;1.97;;;;;;;;;;4991640;28;20451;-77
2021/08/11 06:36:02;;;;;;;3.67;1.70;;;;;;;;;;4981297;28;20503;-77
2021/08/11 06:38:27;;;;;;;3.00;2.57;;;;;;;;;;4986953;28;20400;-77
2021/08/11 06:40:53;;;;;;;4.50;2.63;;;;;;;;;;4999011;28;20418;-77
2021/08/11 06:43:19;;;;;;;1.50;1.30;;;;;;;;;;4998751;28;20480;-77
2021/08/11 06:45:45;;;;;;;1.83;1.73;;;;;;;;;;5006404;28;20397;-77
2021/08/11 06:48:12;;;;;;;4.50;2.20;;;;;;;;;;5015033;28;20417;-77
2021/08/11 06:50:38;;;;;;;1.63;1.53;;;;;;;;;;5014834;28;20423;-76
2021/08/11 06:53:04;;;;;;;2.60;2.40;;;;;;;;;;4997464;28;20450;-77
2021/08/11 06:55:30;;;;;;;3.90;2.77;;;;;;;;;;5001778;28;20478;-76
2021/08/11 06:57:56;;;;;;;3.07;1.77;;;;;;;;;;5000983;28;20482;-76
2021/08/11 07:00:23;;;;;;;7.03;2.10;;;;;;;;;;5011221;28;20462;-76
2021/08/11 07:02:49;;;;;;;1.90;1.80;;;;;;;;;;4993330;28;20461;-77
2021/08/11 07:05:16;;;;;;;1.90;1.33;;;;;;;;;;4994911;28;20789;-77
2021/08/11 07:07:42;;;;;;;3.47;1.40;;;;;;;;;;4997463;28;20408;-78
2021/08/11 07:10:11;;;;;;;2.50;1.50;;;;;;;;;;5004273;28;20401;-78
2021/08/11 07:12:38;;;;;;;3.07;2.97;;;;;;;;;;5001147;28;20514;-78
2021/08/11 07:15:05;;;;;;;1.73;1.47;;;;;;;;;;5009860;28;20488;-78
2021/08/11 07:17:31;;;;;;;2.97;1.73;;;;;;;;;;4999841;28;20471;-78
2021/08/11 07:19:57;;;;;;;1.73;1.63;;;;;;;;;;4995979;28;20502;-77
2021/08/11 07:22:24;;;;;;;1.40;1.30;;;;;;;;;;4994070;28;20972;-77
2021/08/11 07:24:50;;;;;;;2.83;2.63;;;;;;;;;;5005185;28;20464;-77
2021/08/11 07:27:16;;;;;;;1.23;1.13;;;;;;;;;;4994406;28;20386;-78
2021/08/11 07:29:42;;;;;;;1.07;0.97;;;;;;;;;;4996079;28;20389;-78
2021/08/11 07:32:08;;;;;;;1.27;1.10;;;;;;;;;;4996208;28;20410;-78
2021/08/11 07:34:34;;;;;;;3.23;1.27;;;;;;;;;;4999231;28;20458;-78
2021/08/11 07:37:00;;;;;;;1.77;1.43;;;;;;;;;;4999503;28;20430;-78
2021/08/11 07:39:26;;;;;;;2.23;1.67;;;;;;;;;;4999451;28;20442;-78
2021/08/11 07:41:52;;;;;;;2.97;1.53;;;;;;;;;;5003207;28;20461;-78
2021/08/11 07:44:18;;;;;;;1.30;1.20;;;;;;;;;;5022046;28;20413;-78
2021/08/11 07:46:45;;;;;;;1.90;1.80;;;;;;;;;;5002058;28;20565;-78
2021/08/11 07:49:11;;;;;;;2.50;2.20;;;;;;;;;;4998256;28;20418;-78
2021/08/11 07:51:37;;;;;;;1.57;1.23;;;;;;;;;;4997883;28;20433;-77
2021/08/11 07:54:03;;;;;;;1.30;1.10;;;;;;;;;;4997071;28;20963;-77
2021/08/11 07:56:29;;;;;;;2.80;2.60;;;;;;;;;;4993098;28;20413;-76
2021/08/11 07:58:55;;;;;;;3.73;1.10;;;;;;;;;;4991925;28;20460;-77
2021/08/11 08:01:21;;;;;;;3.43;2.13;;;;;;;;;;4999924;28;20415;-77
2021/08/11 08:03:48;;;;;;;0.87;0.87;;;;;;;;;;5010683;28;20527;-76
2021/08/11 08:06:14;;;;;;;1.17;1.07;;;;;;;;;;5006041;28;20441;-76
2021/08/11 08:08:40;;;;;;;2.10;1.20;;;;;;;;;;4994545;28;20423;-76
2021/08/11 08:11:06;;;;;;;1.70;1.60;;;;;;;;;;4993992;28;21046;-76
2021/08/11 08:13:32;;;;;;;3.60;1.87;;;;;;;;;;5009423;28;20545;-76
2021/08/11 08:15:58;;;;;;;1.53;1.43;;;;;;;;;;5001467;28;20454;-76
2021/08/11 08:18:24;;;;;;;2.10;1.90;;;;;;;;;;5010160;28;20423;-76
2021/08/11 08:20:51;;;;;;;2.60;1.80;;;;;;;;;;5007460;28;20398;-76
2021/08/11 08:23:17;;;;;;;2.10;1.90;;;;;;;;;;5009926;28;20439;-77
2021/08/11 08:25:43;;;;;;;1.67;1.57;;;;;;;;;;5015170;28;20421;-76
2021/08/11 08:28:09;;;;;;;2.70;2.10;;;;;;;;;;5015347;28;20775;-76
2021/08/11 08:30:35;;;;;;;2.23;1.83;;;;;;;;;;5015497;28;20378;-76
2021/08/11 08:33:01;;;;;;;1.83;1.50;;;;;;;;;;5015059;28;20427;-76
2021/08/11 08:35:27;;;;;;;6.00;2.17;;;;;;;;;;5005747;28;20440;-77
2021/08/11 08:37:53;;;;;;;2.23;2.10;;;;;;;;;;4985276;28;20561;-76
2021/08/11 08:40:19;;;;;;;1.80;1.53;;;;;;;;;;4995563;28;20402;-77
2021/08/11 08:42:45;;;;;;;3.20;1.70;;;;;;;;;;5002380;28;20992;-76
2021/08/11 08:45:12;;;;;;;1.90;1.80;;;;;;;;;;5009308;28;20390;-76
2021/08/11 08:47:40;;;;;;;1.10;0.93;;;;;;;;;;5014706;28;20427;-76
2021/08/11 08:50:07;;;;;;;1.80;1.33;;;;;;;;;;5019575;28;20413;-77
2021/08/11 08:52:34;;;;;;;1.43;1.33;;;;;;;;;;4995324;28;20433;-76
2021/08/11 08:55:00;;;;;;;1.03;0.97;;;;;;;;;;4995072;28;20452;-76
2021/08/11 08:57:27;;;;;;;1.53;1.30;;;;;;;;;;4994696;28;20552;-76
2021/08/11 08:59:53;;;;;;;1.30;1.20;;;;;;;;;;4995299;28;20416;-76
2021/08/11 09:02:19;;;;;;;1.27;1.17;;;;;;;;;;4995196;28;20460;-76
2021/08/11 09:04:45;;;;;;;2.10;2.00;;;;;;;;;;4994749;28;20506;-76
2021/08/11 09:07:15;;;;;;;1.23;1.13;;;;;;;;;;4993530;28;20789;-76
2021/08/11 09:09:42;;;;;;;1.40;1.30;;;;;;;;;;4994907;28;20417;-76
2021/08/11 09:12:15;;;;;;;2.07;1.87;;;;;;;;;;4999988;28;20430;-76
2021/08/11 09:14:44;;;;;;;2.87;1.60;;;;;;;;;;5006019;28;20452;-76
2021/08/11 09:17:10;;;;;;;1.47;0.90;;;;;;;;;;5009748;28;20426;-76
2021/08/11 09:19:46;;;;;;;0.90;0.80;;;;;;;;;;4995071;28;20503;-76
2021/08/11 09:22:13;;;;;;;1.17;1.10;;;;;;;;;;4994788;28;20460;-76
2021/08/11 09:24:40;;;;;;;2.30;2.10;;;;;;;;;;5003504;28;20451;-76
2021/08/11 09:27:22;;;;;;;1.63;1.53;;;;;;;;;;5013867;28;20393;-76
2021/08/11 09:30:07;;;;;;;1.13;0.87;;;;;;;;;;5012188;28;20398;-77
2021/08/11 09:32:46;;;;;;;1.20;0.93;;;;;;;;;;4994753;28;20937;-76
2021/08/11 09:35:12;;;;;;;1.40;1.17;;;;;;;;;;4994586;28;20416;-76
2021/08/11 09:37:43;;;;;;;1.37;1.27;;;;;;;;;;4993100;28;20438;-76
2021/08/11 09:40:10;;;;;;;1.20;1.10;;;;;;;;;;4999545;28;20503;-76
2021/08/11 09:42:37;;;;;;;1.37;1.27;;;;;;;;;;5005608;28;20635;-76
2021/08/11 09:45:03;;;;;;;1.13;0.87;;;;;;;;;;5002811;28;20931;-76
2021/08/11 09:47:29;;;;;;;0.90;0.77;;;;;;;;;;4993652;28;20494;-76
2021/08/11 09:49:59;;;;;;;2.17;0.83;;;;;;;;;;4994419;28;20429;-76
2021/08/11 09:52:25;;;;;;;0.70;0.60;;;;;;;;;;4994092;28;21059;-77
2021/08/11 09:54:59;;;;;;;3.80;1.47;;;;;;;;;;4993956;28;20405;-76
2021/08/11 09:57:28;;;;;;;0.87;0.80;;;;;;;;;;4993753;28;20387;-76
2021/08/11 09:59:57;;;;;;;0.80;0.80;;;;;;;;;;4994408;28;20895;-76
2021/08/11 10:02:25;;;;;;;0.90;0.70;;;;;;;;;;4994256;28;20467;-76
2021/08/11 10:04:51;;;;;;;0.80;0.70;;;;;;;;;;4994021;28;20434;-76
2021/08/11 10:07:17;;;;;;;1.30;0.77;;;;;;;;;;4993404;28;20445;-76
2021/08/11 10:09:59;;;;;;;1.33;1.23;;;;;;;;;;4995958;28;20439;-76
2021/08/11 10:12:28;;;;;;;0.90;0.70;;;;;;;;;;5004178;28;20417;-76
2021/08/11 10:14:55;;;;;;;1.00;1.00;;;;;;;;;;5006096;28;20469;-76
2021/08/11 10:17:21;;;;;;;1.43;1.33;;;;;;;;;;5008314;28;20486;-76
2021/08/11 10:19:49;;;;;;;0.93;0.93;;;;;;;;;;5007069;28;20918;-76
2021/08/11 10:22:19;;;;;;;1.07;1.07;;;;;;;;;;5007879;28;20881;-76
2021/08/11 10:24:45;;;;;;;1.03;1.03;;;;;;;;;;5002639;28;20447;-76
2021/08/11 10:27:14;;;;;;;0.70;0.70;;;;;;;;;;4998357;28;20468;-76
2021/08/11 10:29:40;;;;;;;0.80;0.80;;;;;;;;;;5005489;28;20756;-76
2021/08/11 10:32:09;;;;;;;1.03;0.60;;;;;;;;;;5013809;28;20412;-76
2021/08/11 10:34:36;;;;;;;1.27;0.70;;;;;;;;;;5013825;28;20971;-77
2021/08/11 10:37:02;;;;;;;0.70;0.60;;;;;;;;;;4997050;28;20932;-76
2021/08/11 10:39:29;;;;;;;0.70;0.70;;;;;;;;;;4993531;28;20437;-77
2021/08/11 10:42:00;;;;;;;1.00;0.90;;;;;;;;;;4993589;28;20814;-76
2021/08/11 10:44:26;;;;;;;0.80;0.80;;;;;;;;;;5000865;28;20506;-76
2021/08/11 10:47:02;;;;;;;0.80;0.80;;;;;;;;;;4996868;28;20446;-77
2021/08/11 10:49:29;;;;;;;0.70;0.60;;;;;;;;;;4993833;28;20426;-77
2021/08/11 10:51:59;;;;;;;0.70;0.70;;;;;;;;;;4997349;28;20503;-77
2021/08/11 10:54:25;;;;;;;0.70;0.60;;;;;;;;;;4994980;28;20453;-76
2021/08/11 10:56:55;;;;;;;1.53;1.43;;;;;;;;;;4994139;28;20482;-77
2021/08/11 10:59:25;;;;;;;0.70;0.70;;;;;;;;;;4994556;28;20415;-77
2021/08/11 11:01:51;;;;;;;0.93;0.83;;;;;;;;;;4994531;28;20445;-77
2021/08/11 11:04:36;;;;;;;2.70;0.70;;;;;;;;;;4994474;28;20806;-77
2021/08/11 11:07:11;;;;;;;0.80;0.80;;;;;;;;;;4992522;28;20443;-77
2021/08/11 11:09:40;;;;;;;1.27;0.70;;;;;;;;;;4993986;28;20928;-77
2021/08/11 11:12:18;;;;;;;0.70;0.60;;;;;;;;;;4994678;28;20891;-77
2021/08/11 11:14:51;;;;;;;1.03;0.93;;;;;;;;;;4994534;28;20477;-77
2021/08/11 11:17:17;;;;;;;0.60;0.50;;;;;;;;;;4992919;28;20442;-77
2021/08/11 11:20:02;;;;;;;1.53;1.43;;;;;;;;;;4994013;28;20426;-77
2021/08/11 11:22:41;;;;;;;0.70;0.60;;;;;;;;;;5002450;28;20864;-77
2021/08/11 11:25:08;;;;;;;0.70;0.60;;;;;;;;;;5000227;28;20416;-77
2021/08/11 11:27:52;;;;;;;0.70;0.67;;;;;;;;;;4993808;28;20490;-77
2021/08/11 11:30:37;;;;;;;0.70;0.60;;;;;;;;;;4994287;28;20510;-77
2021/08/11 11:33:18;;;;;;;0.70;0.60;;;;;;;;;;4993733;28;20423;-76
2021/08/11 11:35:45;;;;;;;0.70;0.60;;;;;;;;;;4992149;28;20435;-77
2021/08/11 11:38:11;;;;;;;0.70;0.60;;;;;;;;;;4993738;28;20429;-77
2021/08/11 11:40:55;;;;;;;0.87;0.70;;;;;;;;;;4995178;28;20426;-76
2021/08/11 11:43:29;;;;;;;0.90;0.80;;;;;;;;;;4993988;28;20516;-76
2021/08/11 11:45:55;;;;;;;0.77;0.70;;;;;;;;;;4997163;28;20422;-76
2021/08/11 11:48:22;;;;;;;0.70;0.50;;;;;;;;;;4997113;28;20436;-76
2021/08/11 11:50:50;;;;;;;1.00;0.70;;;;;;;;;;4997149;28;20901;-76
2021/08/11 11:53:20;;;;;;;1.50;1.00;;;;;;;;;;5009051;28;20689;-76
2021/08/11 11:55:46;;;;;;;0.70;0.50;;;;;;;;;;4996940;28;20873;-76
2021/08/11 11:58:14;;;;;;;1.23;1.17;;;;;;;;;;4996247;28;20501;-76
2021/08/11 12:00:40;;;;;;;0.80;0.67;;;;;;;;;;5004046;28;20433;-76
2021/08/11 12:03:06;;;;;;;0.70;0.70;;;;;;;;;;5009977;28;20968;-76
2021/08/11 12:06:02;;;;;;;0.90;0.77;;;;;;;;;;5006115;28;20414;-76
2021/08/11 12:08:28;;;;;;;0.80;0.80;;;;;;;;;;4971997;28;20481;-76
2021/08/11 12:11:05;;;;;;;0.77;0.60;;;;;;;;;;4976509;28;20400;-76
2021/08/11 12:13:41;;;;;;;0.70;0.60;;;;;;;;;;5034436;23;20521;-70
2021/08/11 12:16:08;;;;;;;0.70;0.70;;;;;;;;;;5026498;28;20480;-71
2021/08/11 12:18:34;;;;;;;0.70;0.60;;;;;;;;;;5048079;28;20414;-70
2021/08/11 12:21:02;;;;;;;1.03;0.67;;;;;;;;;;5034784;28;20776;-71
2021/08/11 12:23:32;;;;;;;0.80;0.70;;;;;;;;;;5035019;28;20514;-71
2021/08/11 12:26:01;;;;;;;0.70;0.60;;;;;;;;;;5018365;28;20517;-70
2021/08/11 12:28:48;;;;;;;0.60;0.50;;;;;;;;;;5015312;28;20788;-70
2021/08/11 12:31:25;;;;;;;0.70;0.70;;;;;;;;;;5014926;28;20907;-71
2021/08/11 12:33:52;;;;;;;1.20;1.10;;;;;;;;;;5015012;28;20963;-70
2021/08/11 12:36:21;;;;;;;1.20;1.00;;;;;;;;;;5036407;28;20547;-70
2021/08/11 12:39:02;;;;;;;0.80;0.70;;;;;;;;;;5026117;28;21002;-70
2021/08/11 12:41:29;;;;;;;1.00;0.90;;;;;;;;;;5049957;28;20478;-70
2021/08/11 12:43:56;;;;;;;0.70;0.70;;;;;;;;;;5029844;28;20467;-70
2021/08/11 12:46:41;;;;;;;1.20;1.10;;;;;;;;;;5022690;28;20459;-70
2021/08/11 12:49:38;;;;;;;1.03;0.90;;;;;;;;;;4995342;28;20894;-71
2021/08/11 12:52:37;;;;;;;0.70;0.60;;;;;;;;;;4993878;28;20423;-70
2021/08/11 12:55:00;;;;;;;1.17;0.87;;;;;;;;;;5013270;28;20445;-70
2021/08/11 12:57:43;;;;;;;0.80;0.73;;;;;;;;;;5014456;28;20413;-70
2021/08/11 13:00:09;;;;;;;0.70;0.60;;;;;;;;;;5029362;28;20927;-70
2021/08/11 13:02:35;;;;;;;1.00;0.90;;;;;;;;;;5014072;28;20471;-73
2021/08/11 13:05:08;;;;;;;0.80;0.70;;;;;;;;;;5011056;28;20443;-73
2021/08/11 13:07:35;;;;;;;1.10;1.00;;;;;;;;;;5009295;28;20518;-72
2021/08/11 13:10:11;;;;;;;1.00;0.90;;;;;;;;;;5012630;28;20441;-73
2021/08/11 13:12:37;;;;;;;1.10;0.80;;;;;;;;;;5012507;28;20411;-73
2021/08/11 13:15:04;;;;;;;0.60;0.50;;;;;;;;;;5020611;28;20472;-73
2021/08/11 13:17:31;;;;;;;0.97;0.90;;;;;;;;;;5020399;28;20432;-73
2021/08/11 13:20:16;;;;;;;1.40;0.60;;;;;;;;;;5013202;28;20520;-73
2021/08/11 13:22:43;;;;;;;0.60;0.50;;;;;;;;;;5014026;28;20540;-73
2021/08/11 13:25:09;;;;;;;1.20;1.10;;;;;;;;;;5013838;28;20796;-73
2021/08/11 13:27:35;;;;;;;0.80;0.80;;;;;;;;;;5014040;28;20970;-73
2021/08/11 13:30:01;;;;;;;0.77;0.73;;;;;;;;;;5013710;28;20471;-73
2021/08/11 13:32:27;;;;;;;1.07;0.97;;;;;;;;;;5014137;28;20410;-73
2021/08/11 13:34:54;;;;;;;0.83;0.83;;;;;;;;;;5013869;28;20439;-71
2021/08/11 13:37:20;;;;;;;0.60;0.50;;;;;;;;;;5012669;28;20936;-71
2021/08/11 13:39:46;;;;;;;0.70;0.60;;;;;;;;;;5013970;28;20975;-72
2021/08/11 13:42:13;;;;;;;0.70;0.60;;;;;;;;;;5013488;28;20458;-72
2021/08/11 13:44:39;;;;;;;0.60;0.50;;;;;;;;;;5015871;28;20507;-72
2021/08/11 13:47:05;;;;;;;1.00;0.83;;;;;;;;;;5019828;28;20441;-71
2021/08/11 13:49:31;;;;;;;0.70;0.67;;;;;;;;;;5013587;28;20506;-71
2021/08/11 13:51:57;;;;;;;0.70;0.67;;;;;;;;;;5012675;28;20434;-72
2021/08/11 13:54:23;;;;;;;0.83;0.83;;;;;;;;;;5024707;28;20445;-71
2021/08/11 13:56:50;;;;;;;0.80;0.77;;;;;;;;;;4997802;28;20894;-72
2021/08/11 13:59:17;;;;;;;0.70;0.50;;;;;;;;;;5013025;28;20502;-72
2021/08/11 14:01:43;;;;;;;0.60;0.50;;;;;;;;;;5023732;28;20421;-73
2021/08/11 14:04:09;;;;;;;1.37;1.07;;;;;;;;;;5027304;28;20475;-72
2021/08/11 14:06:35;;;;;;;2.10;0.70;;;;;;;;;;5012372;28;20446;-72
2021/08/11 14:09:01;;;;;;;1.03;0.97;;;;;;;;;;5017778;28;20445;-72
2021/08/11 14:11:27;;;;;;;0.80;0.80;;;;;;;;;;5038697;28;20553;-73
2021/08/11 14:13:53;;;;;;;0.70;0.70;;;;;;;;;;4993510;28;20471;-72
2021/08/11 14:16:19;;;;;;;1.10;0.97;;;;;;;;;;4992407;28;20477;-72
2021/08/11 14:18:45;;;;;;;0.70;0.70;;;;;;;;;;4993138;28;20449;-72
2021/08/11 14:21:11;;;;;;;0.83;0.83;;;;;;;;;;4993428;28;20450;-72
2021/08/11 14:23:37;;;;;;;0.93;0.90;;;;;;;;;;4993486;28;20839;-73
2021/08/11 14:26:03;;;;;;;1.07;1.00;;;;;;;;;;5015406;28;20508;-72
2021/08/11 14:28:29;;;;;;;0.60;0.50;;;;;;;;;;5024139;28;20780;-72
2021/08/11 14:30:55;;;;;;;0.60;0.60;;;;;;;;;;5028224;28;20479;-72
2021/08/11 14:33:21;;;;;;;0.80;0.80;;;;;;;;;;5012823;28;20433;-73
2021/08/11 14:35:47;;;;;;;0.70;0.70;;;;;;;;;;5011899;28;20806;-73
2021/08/11 14:38:12;;;;;;;0.60;0.50;;;;;;;;;;5011803;28;20425;-72
2021/08/11 14:40:38;;;;;;;0.70;0.60;;;;;;;;;;5006086;28;20429;-72
2021/08/11 14:43:05;;;;;;;0.87;0.87;;;;;;;;;;5011554;28;20512;-72
2021/08/11 14:45:30;;;;;;;1.13;0.83;;;;;;;;;;5016028;28;20428;-72
2021/08/11 14:47:56;;;;;;;0.70;0.70;;;;;;;;;;5015514;28;20420;-72